• Join FlightAware (Why Join?)
  • Login
  • US Flag 
04:35AM EDT


 

Airport Tracker/Info


-or-


 

Live Flight TrackerFlight Track Log ✈ AAL919 ✈ 11-Jun-2013 ✈ KDFW - KMIA

Flight Track Log - Related Links

Times and Time Zones

All times are in EDT time to prevent confusion due to time zone crossing. See the AAL919 flight status page for this flight to view local times or setup timezone preferences in your user account.

Time Position Orientation Groundspeed Altitude Reporting Facility
EDT Latitude Longitude Course Direction KTS MPH feet Rate Location/Type
07:00AM 32.8833 -97.0333 84° East 164 189 1,300  Level Dallas / Fort Worth TRACON
07:01AM 32.8333 -97.0333 180° South 229 264 3,200 2,160 Climbing Dallas / Fort Worth TRACON
07:02AM 32.6849 -96.9413 103° East  Level FlightAware Approximate
07:02AM 32.7667 -96.9833 148° Southeast 279 321 5,900  Level Dallas / Fort Worth TRACON
07:03AM 32.6833 -96.7936 90° East  Level FlightAware Approximate
07:03AM 32.7667 -96.9000 90° East 281 323 8,500  Level Dallas / Fort Worth TRACON
07:04AM 32.7086 -96.6489 77° East  Level FlightAware Approximate
07:05AM 32.7344 -96.5042 84° East  Level FlightAware Approximate
07:05AM 32.7689 -96.7292 89° East 319 367 11,500  Level Fort Worth Center
07:06AM 32.7661 -96.6056 91° East 332 382 13,400 1,800 Climbing Fort Worth Center
07:07AM 32.7633 -96.5019 92° East 348 400 15,200 1,800 Climbing Fort Worth Center
07:08AM 32.7622 -96.3708 91° East 348 400 17,000 1,680 Climbing Fort Worth Center
07:09AM 32.7489 -96.2622 98° East 359 413 18,600 1,560 Climbing Fort Worth Center
07:10AM 32.7328 -96.1242 98° East 371 427 20,200 1,500 Climbing Fort Worth Center
07:11AM 32.7336 -96.0106 89° East 377 434 21,600 1,500 Climbing Fort Worth Center
07:12AM 32.7300 -95.8675 92° East 389 448 23,200 1,500 Climbing Fort Worth Center
07:13AM 32.7303 -95.7317 90° East 400 460 24,600 1,320 Climbing Fort Worth Center
07:14AM 32.7283 -95.5933 91° East 405 466 25,900 1,200 Climbing Fort Worth Center
07:15AM 32.7242 -95.4553 92° East 405 466 27,100 1,200 Climbing Fort Worth Center
07:16AM 32.7219 -95.3119 91° East 415 478 28,300 1,020 Climbing Fort Worth Center
07:17AM 32.7197 -95.1811 91° East 427 491 29,200 900 Climbing Fort Worth Center
07:18AM 32.7150 -95.0331 92° East 438 504 30,200 1,200 Climbing Fort Worth Center
07:19AM 32.7100 -94.8853 92° East 444 511 31,600 1,440 Climbing Fort Worth Center
07:20AM 32.6572 -94.7533 115° Southeast 444 511 33,100 1,380 Climbing Fort Worth Center
07:21AM 32.5856 -94.6250 124° Southeast 443 510 34,400 1,380 Climbing Fort Worth Center
07:22AM 32.5028 -94.4797 124° Southeast 468 539 35,900 1,440 Climbing Fort Worth Center
07:23AM 32.4331 -94.3564 124° Southeast 473 544 37,300 1,080 Climbing Fort Worth Center
07:24AM 32.3608 -94.2261 123° Southeast 467 537 38,100 780 Climbing Fort Worth Center
07:25AM 32.2908 -94.1006 123° Southeast 467 537 38,900 240 Climbing Fort Worth Center
07:27AM 32.1281 -93.8089 123° Southeast 472 543 39,000  Climbing Houston Center
07:28AM 32.0542 -93.6794 124° Southeast 474 545 39,000  Level Houston Center
07:29AM 31.9786 -93.5533 125° Southeast 474 545 39,000  Level Houston Center
07:30AM 31.9047 -93.4250 124° Southeast 473 544 39,000  Level Houston Center
07:31AM 31.8333 -93.2950 123° Southeast 475 547 39,000  Level Houston Center
07:32AM 31.7569 -93.1681 125° Southeast 476 548 39,000  Level Houston Center
07:33AM 31.6822 -93.0378 124° Southeast 479 551 39,000  Level Houston Center
07:34AM 31.6078 -92.9083 124° Southeast 479 551 39,000  Level Houston Center
07:35AM 31.5336 -92.7828 125° Southeast 476 548 39,000  Level Houston Center
07:36AM 31.4586 -92.6533 124° Southeast 473 544 39,000  Level Houston Center
07:37AM 31.3844 -92.5292 125° Southeast 473 544 39,000  Level Houston Center
07:38AM 31.2936 -92.3753 125° Southeast 475 547 39,000  Level Houston Center
07:40AM 31.1977 -92.2672 124° Southeast  Level FlightAware Approximate
07:40AM 31.1456 -92.1250 124° Southeast 466 536 39,000  Level Houston Center
07:41AM 31.0817 -92.0158 124° Southeast 466 536 39,000  Level Houston Center
07:43AM 30.9914 -91.8650 125° Southeast 472 543 39,000  Level Houston Center
07:44AM 30.9172 -91.7403 125° Southeast 469 540 39,000  Level Houston Center
07:45AM 30.8419 -91.6156 125° Southeast 471 542 39,000  Level Houston Center
07:46AM 30.7661 -91.4908 125° Southeast 471 542 39,000  Level Houston Center
07:47AM 30.6964 -91.3733 125° Southeast 472 543 39,000  Level Houston Center
07:48AM 30.6219 -91.2494 125° Southeast 470 541 39,000  Level Houston Center
07:49AM 30.5469 -91.1253 125° Southeast 470 541 39,000  Level Houston Center
07:50AM 30.4550 -90.9781 126° Southeast 471 542 39,000  Level Houston Center
07:51AM 30.3792 -90.8542 125° Southeast 472 543 39,000  Level Houston Center
07:52AM 30.3022 -90.7311 126° Southeast 474 545 39,000  Level Houston Center
07:53AM 30.2264 -90.6078 125° Southeast 474 545 39,000  Level Houston Center
07:54AM 30.1506 -90.4847 125° Southeast 474 545 39,000  Level Houston Center
07:55AM 30.0739 -90.3628 126° Southeast 473 544 39,000  Level Houston Center
07:56AM 29.9969 -90.2389 126° Southeast 478 550 39,000  Level Houston Center
07:57AM 29.9047 -90.0914 126° Southeast 477 549 39,000  Level Houston Center
07:58AM 29.8275 -89.9700 126° Southeast 475 547 39,000  Level Houston Center
07:59AM 29.7394 -89.8547 131° Southeast 480 552 39,000  Level Houston Center
08:00AM 29.6539 -89.7394 130° Southeast 478 550 39,000  Level Houston Center
08:01AM 29.5683 -89.6228 130° Southeast 479 551 39,000  Level Houston Center
08:02AM 29.4828 -89.5053 130° Southeast 483 556 39,000  Level Houston Center
08:03AM 29.3967 -89.3892 130° Southeast 479 551 39,000  Level Houston Center
08:04AM 29.3103 -89.2722 130° Southeast 481 554 39,000  Level Houston Center
08:05AM 29.2261 -89.1164 122° Southeast 485 558 39,000  Level Houston Center
08:06AM 29.1747 -88.9728 112° Southeast 487 560 39,000  Level Houston Center
08:07AM 29.1217 -88.8322 113° Southeast 486 559 39,000  Level Houston Center
08:08AM 29.0681 -88.6897 113° Southeast 490 564 39,000  Level Houston Center
08:09AM 29.0150 -88.5472 113° Southeast 491 565 39,000  Level Houston Center
08:10AM 28.9586 -88.4058 114° Southeast 493 567 39,000  Level Houston Center
08:11AM 28.9044 -88.2636 113° Southeast 491 565 39,000  Level Houston Center
08:12AM 28.8478 -88.1211 114° Southeast 494 568 39,000  Level Houston Center
08:13AM 28.7825 -87.9536 114° Southeast 496 571 39,000  Level Houston Center
08:14AM 28.7261 -87.8100 114° Southeast 499 574 39,000  Level Houston Center
08:15AM 28.6692 -87.6667 114° Southeast 500 575 39,000  Level Houston Center
08:16AM 28.6128 -87.5233 114° Southeast 499 574 39,000  Level Houston Center
08:17AM 28.5556 -87.3797 114° Southeast 502 578 39,000  Level Houston Center
08:18AM 28.4975 -87.2356 115° Southeast 505 581 39,000  Level Houston Center
08:19AM 28.4408 -87.0928 114° Southeast 500 575 39,000  Level Houston Center
08:20AM 28.3717 -86.9217 115° Southeast 498 573 39,000  Level Houston Center
08:21AM 28.3144 -86.7803 115° Southeast 495 570 39,000  Level Jacksonville Center
08:22AM 28.2581 -86.6414 115° Southeast 489 563 39,000  Level Jacksonville Center
08:23AM 28.1975 -86.4933 115° Southeast 495 570 39,000  Level Jacksonville Center
08:24AM 28.1428 -86.3594 115° Southeast 487 560 39,000  Level Jacksonville Center
08:25AM 28.0878 -86.2306 116° Southeast 479 551 39,000  Level Jacksonville Center
08:26AM 28.0289 -86.0853 115° Southeast 479 551 39,000  Level Jacksonville Center
08:27AM 27.9717 -85.9494 115° Southeast 484 557 39,000  Level Jacksonville Center
08:28AM 27.9144 -85.8139 116° Southeast 477 549 39,000  Level Jacksonville Center
08:30AM 27.8228 -85.5864 114° Southeast 475 547 39,000  Level Miami Center
08:31AM 27.7664 -85.4483 115° Southeast 483 556 39,000  Level Miami Center
08:32AM 27.7058 -85.3081 116° Southeast 497 572 39,000  Level Miami Center
08:33AM 27.6397 -85.1581 116° Southeast 492 566 39,000  Level Miami Center
08:34AM 27.5869 -85.0211 113° Southeast 487 560 39,000  Level Miami Center
08:35AM 27.5219 -84.8808 118° Southeast 489 563 39,000  Level Miami Center
08:36AM 27.4672 -84.7414 114° Southeast 494 568 39,000  Level Miami Center
08:37AM 27.4058 -84.6039 117° Southeast 489 563 39,000  Level Miami Center
08:38AM 27.3422 -84.4644 117° Southeast 489 563 39,000  Level Miami Center
08:39AM 27.2889 -84.3278 114° Southeast 489 563 39,000  Level Miami Center
08:40AM 27.2272 -84.1886 116° Southeast 489 563 39,000  Level Miami Center
08:41AM 27.1653 -84.0542 117° Southeast 489 563 39,000  Level Miami Center
08:42AM 27.1114 -83.9178 114° Southeast 489 563 39,000  Level Miami Center
08:43AM 27.0514 -83.7814 116° Southeast 483 556 39,000  Level Miami Center
08:44AM 26.9911 -83.6453 116° Southeast 483 556 39,000  Level Miami Center
08:45AM 26.9306 -83.5114 117° Southeast 478 550 39,000  Level Miami Center
08:46AM 26.8739 -83.3825 116° Southeast 478 550 39,000  Level Miami Center
08:47AM 26.8131 -83.2489 117° Southeast 478 550 39,000 -300 Level Miami Center
08:48AM 26.7561 -83.1181 116° Southeast 478 550 38,500 -1,020 Descending Miami Center
08:49AM 26.6950 -82.9822 117° Southeast 478 550 37,000 -1,500 Descending Miami Center
08:50AM 26.6361 -82.8492 116° Southeast 483 556 35,500 -1,560 Descending Miami Center
08:51AM 26.5747 -82.7114 116° Southeast 483 556 33,900 -1,380 Descending Miami Center
08:52AM 26.5133 -82.5761 117° Southeast 488 562 32,800 -1,260 Descending Miami Center
08:53AM 26.4519 -82.4386 116° Southeast 488 562 31,400 -1,200 Descending Miami Center
08:54AM 26.3961 -82.3156 117° Southeast 488 562 30,400 -960 Descending Miami Center
08:55AM 26.3361 -82.1878 118° Southeast 483 556 29,500 -1,260 Descending Miami Center
08:56AM 26.2783 -82.0556 116° Southeast 472 543 27,900 -1,860 Descending Miami Center
08:57AM 26.2197 -81.9347 118° Southeast 461 531 25,800 -2,040 Descending Miami Center
08:58AM 26.1678 -81.8078 114° Southeast 455 524 23,900 -2,040 Descending Miami Center
08:59AM 26.1239 -81.6881 112° Southeast 434 499 21,800 -2,100 Descending Miami Center
09:00AM 26.0861 -81.5661 109° East 417 480 19,800 -2,040 Descending Miami Center
09:01AM 26.0481 -81.4514 110° East 404 465 17,800 -2,100 Descending Miami Center
09:02AM 26.0158 -81.3417 108° East 391 450 15,700 -2,100 Descending Miami Center
09:03AM 25.9794 -81.2317 110° East 380 437 13,700 -2,040 Descending Miami Center
09:04AM 25.9450 -81.1264 110° East 370 426 11,700 -2,160 Descending Miami Center
09:05AM 25.9194 -81.0700 117° Southeast 354 407 10,500 -1,440 Descending Miami Center
09:05AM 25.9103 -81.0258 103° East 357 411 10,300 -540 Descending Miami Center
09:06AM 25.8908 -80.9744 113° Southeast 311 358 10,000 -720 Descending Miami Center
09:06AM 25.8814 -80.9394 107° East 333 383 9,600 -1,320 Descending Miami Center
09:07AM 25.8619 -80.8881 113° Southeast 275 316 8,700 -1,320 Descending Miami Center
09:07AM 25.8586 -80.8578 97° East 299 344 8,300 -1,380 Descending Miami Center
09:08AM 25.8433 -80.8044 108° East 274 315 7,300 -1,440 Descending Miami Center
09:08AM 25.8400 -80.7719 96° East 283 326 6,900 -1,140 Descending Miami Center
09:09AM 25.8289 -80.7231 104° East 271 312 6,200 -1,140 Descending Miami Center
09:09AM 25.8233 -80.6928 102° East 278 320 5,800 -1,140 Descending Miami Center
09:09AM 25.8178 -80.6697 105° East 261 300 5,400 -1,200 Descending Miami Center
09:10AM 25.8086 -80.6186 101° East 260 299 4,600 -1,320 Descending Miami Center
09:10AM 25.8008 -80.5883 106° East 251 289 4,100 -1,320 Descending Miami Center
09:11AM 25.7939 -80.5419 99° East 254 292 3,300 -1,200 Descending Miami Center